Time;durP1;ratioP1;P1;durP2;ratioP2;P2;SDS_P1;SDS_P2;PMS_P1;PMS_P2;Temp;Humidity;BMP_temperature;BMP_pressure;BME280_temperature;BME280_humidity;BME280_pressure;Samples;Min_cycle;Max_cycle;Signal;HPM_P1;HPM_P2
2021/04/16 00:00:13;;;;;;;3.80;3.50;;;5.20;64.90;;;;;;5049587;28;20450;-48
2021/04/16 00:02:40;;;;;;;4.03;3.73;;;5.10;65.10;;;;;;5046122;28;20805;-48
2021/04/16 00:05:09;;;;;;;3.30;3.10;;;5.10;65.30;;;;;;5045179;28;20951;-48
2021/04/16 00:07:35;;;;;;;3.60;3.30;;;5.20;65.40;;;;;;5048205;28;20467;-48
2021/04/16 00:10:06;;;;;;;5.80;3.33;;;5.10;65.50;;;;;;5048597;28;21219;-48
2021/04/16 00:12:32;;;;;;;3.50;3.10;;;5.20;65.80;;;;;;5060321;28;20483;-48
2021/04/16 00:14:59;;;;;;;3.87;3.30;;;5.20;65.90;;;;;;5044609;28;20979;-48
2021/04/16 00:17:25;;;;;;;4.53;3.23;;;5.20;65.90;;;;;;5051716;28;20454;-48
2021/04/16 00:19:51;;;;;;;4.70;3.80;;;5.20;65.90;;;;;;5048625;28;20852;-48
2021/04/16 00:22:19;;;;;;;3.37;3.07;;;5.10;66.00;;;;;;5047069;28;20465;-48
2021/04/16 00:24:45;;;;;;;3.10;2.80;;;5.10;66.10;;;;;;5047249;28;20470;-48
2021/04/16 00:27:11;;;;;;;4.33;3.20;;;5.10;66.20;;;;;;5047353;28;20451;-48
2021/04/16 00:29:37;;;;;;;4.70;3.43;;;5.10;66.30;;;;;;5044961;28;20622;-48
2021/04/16 00:32:04;;;;;;;5.43;3.53;;;5.10;66.40;;;;;;5049902;28;20492;-48
2021/04/16 00:34:30;;;;;;;4.00;3.23;;;5.10;66.40;;;;;;5049033;28;20918;-48
2021/04/16 00:36:56;;;;;;;3.03;2.83;;;5.10;66.50;;;;;;5048085;28;20943;-48
2021/04/16 00:39:24;;;;;;;6.60;3.97;;;5.20;66.60;;;;;;5047911;28;20454;-48
2021/04/16 00:41:51;;;;;;;3.67;3.37;;;5.20;66.50;;;;;;5044065;28;20463;-48
2021/04/16 00:44:18;;;;;;;4.77;3.60;;;5.20;66.60;;;;;;5047577;28;20462;-48
2021/04/16 00:47:00;;;;;;;4.37;3.67;;;5.20;66.70;;;;;;5048363;28;20825;-48
2021/04/16 00:49:34;;;;;;;4.20;3.30;;;5.20;66.90;;;;;;5048105;28;20963;-48
2021/04/16 00:52:02;;;;;;;3.60;2.90;;;5.20;67.00;;;;;;5049179;28;20478;-48
2021/04/16 00:54:37;;;;;;;4.23;3.60;;;5.30;67.40;;;;;;5061913;28;20454;-48
2021/04/16 00:57:05;;;;;;;4.30;3.33;;;5.30;67.40;;;;;;5046356;28;20460;-48
2021/04/16 00:59:35;;;;;;;3.27;2.97;;;5.30;67.50;;;;;;5047567;28;20463;-48
2021/04/16 01:02:03;;;;;;;5.37;3.37;;;5.30;67.60;;;;;;5045153;28;21282;-48
2021/04/16 01:04:31;;;;;;;4.77;3.30;;;5.40;67.80;;;;;;5044993;28;20516;-48
2021/04/16 01:07:00;;;;;;;4.73;3.80;;;5.40;67.80;;;;;;5048208;28;20494;-48
2021/04/16 01:09:27;;;;;;;5.10;3.67;;;5.40;67.90;;;;;;5041852;28;20455;-48
2021/04/16 01:11:53;;;;;;;4.50;3.83;;;5.50;67.80;;;;;;5046919;28;21033;-48
2021/04/16 01:14:19;;;;;;;4.00;3.70;;;5.50;67.80;;;;;;5044349;28;20451;-48
2021/04/16 01:16:47;;;;;;;3.30;3.07;;;5.50;67.80;;;;;;5046652;28;20589;-48
2021/04/16 01:19:25;;;;;;;3.80;3.33;;;5.50;67.60;;;;;;5048351;28;20450;-48
2021/04/16 01:21:58;;;;;;;3.40;3.00;;;5.50;67.60;;;;;;5046530;28;20471;-48
2021/04/16 01:24:33;;;;;;;4.80;3.60;;;5.50;67.60;;;;;;5059937;28;20824;-48
2021/04/16 01:27:03;;;;;;;4.17;3.10;;;5.50;67.70;;;;;;5047132;28;20988;-48
2021/04/16 01:29:29;;;;;;;5.00;3.10;;;5.50;67.70;;;;;;5045336;28;20484;-48
2021/04/16 01:31:55;;;;;;;3.10;2.90;;;5.50;67.80;;;;;;5064044;28;20532;-48
2021/04/16 01:34:26;;;;;;;4.53;3.47;;;5.50;67.70;;;;;;5046575;28;21121;-48
2021/04/16 01:36:54;;;;;;;5.10;3.83;;;5.50;67.70;;;;;;5046937;28;20459;-48
2021/04/16 01:39:22;;;;;;;4.10;3.70;;;5.50;67.80;;;;;;5049744;28;20459;-48
2021/04/16 01:41:49;;;;;;;4.50;3.40;;;5.50;67.90;;;;;;5048083;28;20473;-48
2021/04/16 01:44:19;;;;;;;3.50;3.20;;;5.50;67.90;;;;;;5060864;28;20529;-48
2021/04/16 01:46:58;;;;;;;4.33;3.60;;;5.50;67.80;;;;;;5046455;28;20466;-48
2021/04/16 01:49:33;;;;;;;4.27;3.30;;;5.50;67.80;;;;;;5043974;28;20552;-48
2021/04/16 01:52:00;;;;;;;4.50;3.47;;;5.50;67.80;;;;;;5044978;28;20646;-48
2021/04/16 01:54:34;;;;;;;8.20;4.33;;;5.50;67.80;;;;;;5043781;28;20494;-48
2021/04/16 01:57:07;;;;;;;5.17;4.57;;;5.50;67.70;;;;;;5044422;28;20447;-48
2021/04/16 01:59:35;;;;;;;5.67;3.73;;;5.50;67.60;;;;;;5046277;28;20439;-48
2021/04/16 02:02:07;;;;;;;5.03;3.63;;;5.60;67.30;;;;;;5043181;28;20459;-48
2021/04/16 02:04:34;;;;;;;5.23;3.97;;;5.60;67.30;;;;;;5047450;28;20469;-48
2021/04/16 02:07:00;;;;;;;4.43;4.03;;;5.70;67.10;;;;;;5045486;28;20553;-48
2021/04/16 02:09:30;;;;;;;6.00;3.83;;;5.70;67.00;;;;;;5046090;28;20557;-48
2021/04/16 02:11:57;;;;;;;5.07;4.57;;;5.70;66.90;;;;;;5045817;28;20490;-48
2021/04/16 02:14:26;;;;;;;5.60;4.30;;;5.80;66.80;;;;;;5044372;28;20500;-48
2021/04/16 02:16:56;;;;;;;6.50;4.63;;;5.80;66.80;;;;;;5062486;28;20486;-48
2021/04/16 02:19:23;;;;;;;6.77;4.63;;;5.80;66.60;;;;;;5046268;28;20454;-48
2021/04/16 02:21:50;;;;;;;6.70;4.43;;;5.90;66.50;;;;;;5043311;28;20458;-48
2021/04/16 02:24:17;;;;;;;5.33;4.80;;;5.90;66.50;;;;;;5048133;28;20460;-48
2021/04/16 02:26:44;;;;;;;5.87;5.23;;;5.90;66.40;;;;;;5043248;28;20914;-48
2021/04/16 02:29:14;;;;;;;5.90;5.10;;;5.90;66.70;;;;;;5046491;28;20538;-48
2021/04/16 02:31:42;;;;;;;6.80;5.70;;;5.90;66.90;;;;;;5044117;28;20482;-48
2021/04/16 02:34:16;;;;;;;5.10;4.60;;;6.00;66.80;;;;;;5048219;28;21040;-48
2021/04/16 02:36:42;;;;;;;5.83;4.67;;;6.00;66.80;;;;;;5043029;28;20481;-48
2021/04/16 02:39:08;;;;;;;6.77;5.37;;;6.00;66.80;;;;;;5060741;28;20451;-48
2021/04/16 02:41:35;;;;;;;4.33;3.90;;;6.00;66.80;;;;;;5046200;28;20466;-48
2021/04/16 02:44:03;;;;;;;7.67;4.90;;;6.00;66.70;;;;;;5048660;28;20511;-48
2021/04/16 02:46:30;;;;;;;6.97;4.93;;;6.10;66.70;;;;;;5047840;28;20887;-48
2021/04/16 02:48:56;;;;;;;5.00;4.37;;;6.10;66.40;;;;;;5066707;28;20549;-48
2021/04/16 02:51:23;;;;;;;5.10;4.60;;;6.10;66.60;;;;;;5063251;28;20493;-48
2021/04/16 02:53:49;;;;;;;6.13;5.40;;;6.10;66.80;;;;;;5046038;28;20455;-49
2021/04/16 02:56:16;;;;;;;7.17;5.00;;;6.10;66.90;;;;;;5052096;28;20454;-49
2021/04/16 02:58:42;;;;;;;7.20;4.90;;;6.10;66.90;;;;;;5044286;28;20461;-49
2021/04/16 03:01:08;;;;;;;5.30;4.43;;;6.20;66.90;;;;;;5050719;28;20851;-49
2021/04/16 03:03:35;;;;;;;6.70;4.67;;;6.20;66.70;;;;;;5048211;28;20760;-49
2021/04/16 03:06:04;;;;;;;5.57;4.47;;;6.20;66.40;;;;;;5052169;28;20470;-49
2021/04/16 03:08:30;;;;;;;6.73;4.70;;;6.10;66.40;;;;;;5047923;28;20491;-49
2021/04/16 03:10:57;;;;;;;5.47;4.63;;;6.20;66.70;;;;;;5050072;28;20684;-49
2021/04/16 03:13:23;;;;;;;6.23;4.77;;;6.20;66.70;;;;;;5051469;28;21069;-49
2021/04/16 03:15:50;;;;;;;5.03;4.53;;;6.10;66.80;;;;;;5046400;28;20558;-49
2021/04/16 03:18:17;;;;;;;4.90;4.33;;;6.20;67.00;;;;;;5051783;28;20462;-49
2021/04/16 03:20:43;;;;;;;7.70;5.40;;;6.30;66.50;;;;;;5047598;28;20454;-49
2021/04/16 03:23:11;;;;;;;7.97;5.67;;;6.30;66.40;;;;;;5051079;28;20454;-49
2021/04/16 03:25:37;;;;;;;7.57;4.67;;;6.30;66.50;;;;;;5048246;28;20462;-49
2021/04/16 03:28:05;;;;;;;5.90;4.93;;;6.20;66.70;;;;;;5050037;28;20484;-49
2021/04/16 03:30:34;;;;;;;6.80;5.40;;;6.30;66.90;;;;;;5049189;28;20459;-49
2021/04/16 03:33:01;;;;;;;9.83;6.00;;;6.30;66.90;;;;;;5049104;28;20505;-49
2021/04/16 03:35:28;;;;;;;5.63;4.80;;;6.30;67.00;;;;;;5051026;28;20454;-49
2021/04/16 03:37:55;;;;;;;5.80;4.50;;;6.30;67.00;;;;;;5049883;28;20459;-49
2021/04/16 03:40:29;;;;;;;6.13;5.53;;;6.30;67.00;;;;;;5050193;28;20468;-49
2021/04/16 03:42:56;;;;;;;7.63;5.43;;;6.30;67.10;;;;;;5049929;28;20457;-49
2021/04/16 03:45:23;;;;;;;10.37;4.80;;;6.30;67.20;;;;;;5049312;28;20545;-49
2021/04/16 03:47:50;;;;;;;8.33;5.43;;;6.30;67.20;;;;;;5048495;28;20467;-49
2021/04/16 03:50:22;;;;;;;5.83;5.33;;;6.30;67.20;;;;;;5048638;28;20947;-49
2021/04/16 03:52:49;;;;;;;6.27;5.07;;;6.30;67.40;;;;;;5047950;28;20851;-49
2021/04/16 03:55:21;;;;;;;6.10;5.50;;;6.30;67.40;;;;;;5064400;28;20520;-49
2021/04/16 03:57:47;;;;;;;6.73;5.27;;;6.30;67.40;;;;;;5049215;28;20593;-49
2021/04/16 04:00:19;;;;;;;6.40;5.80;;;6.20;67.70;;;;;;5049474;28;20555;-49
2021/04/16 04:02:45;;;;;;;7.30;5.23;;;6.20;67.80;;;;;;5047798;28;20963;-49
2021/04/16 04:05:13;;;;;;;6.47;5.53;;;6.20;67.80;;;;;;5063810;28;20490;-49
2021/04/16 04:07:39;;;;;;;6.50;5.80;;;6.20;67.80;;;;;;5047728;28;20969;-49
2021/04/16 04:10:07;;;;;;;6.30;5.70;;;6.30;67.90;;;;;;5047238;28;20469;-49
2021/04/16 04:12:36;;;;;;;6.03;5.50;;;6.20;67.80;;;;;;5050123;28;20486;-49
2021/04/16 04:15:04;;;;;;;6.10;5.50;;;6.20;67.80;;;;;;5063501;28;20470;-49
2021/04/16 04:17:33;;;;;;;6.50;5.80;;;6.20;67.80;;;;;;5049728;28;20447;-49
2021/04/16 04:20:00;;;;;;;6.20;5.60;;;6.20;68.00;;;;;;5050861;28;20454;-49
2021/04/16 04:22:27;;;;;;;7.47;6.07;;;6.20;68.00;;;;;;5044182;28;20682;-49
2021/04/16 04:24:53;;;;;;;8.20;5.83;;;6.30;67.40;;;;;;5050079;28;20465;-49
2021/04/16 04:27:20;;;;;;;5.80;5.27;;;6.20;67.50;;;;;;5047981;28;20554;-49
2021/04/16 04:29:46;;;;;;;7.53;5.53;;;6.20;67.70;;;;;;5050611;28;20490;-48
2021/04/16 04:32:13;;;;;;;6.30;5.70;;;6.20;67.70;;;;;;5048780;28;21029;-49
2021/04/16 04:34:40;;;;;;;5.63;4.97;;;6.30;67.20;;;;;;5048912;28;20789;-49
2021/04/16 04:37:09;;;;;;;10.97;5.73;;;6.30;66.80;;;;;;5045104;28;20814;-49
2021/04/16 04:39:40;;;;;;;5.70;5.10;;;6.20;66.90;;;;;;5043481;28;20468;-49
2021/04/16 04:42:07;;;;;;;5.83;5.23;;;6.20;66.80;;;;;;5047946;28;20465;-49
2021/04/16 04:44:34;;;;;;;6.33;5.40;;;6.20;66.70;;;;;;5045053;28;20462;-49
2021/04/16 04:47:00;;;;;;;7.30;6.10;;;6.30;66.60;;;;;;5049036;28;20493;-49
2021/04/16 04:49:27;;;;;;;8.53;5.40;;;6.20;66.90;;;;;;5047175;28;20999;-49
2021/04/16 04:52:11;;;;;;;7.77;5.77;;;6.20;66.90;;;;;;5050310;28;20478;-49
2021/04/16 04:54:39;;;;;;;8.53;5.27;;;6.30;66.60;;;;;;5061890;28;20463;-49
2021/04/16 04:57:05;;;;;;;10.23;5.50;;;6.20;66.80;;;;;;5046105;28;20545;-49
2021/04/16 04:59:32;;;;;;;8.10;5.20;;;6.20;66.70;;;;;;5061574;28;20470;-49
2021/04/16 05:01:58;;;;;;;9.10;5.40;;;6.30;66.40;;;;;;5048786;28;20465;-49
2021/04/16 05:04:24;;;;;;;7.33;5.80;;;6.30;66.40;;;;;;5047289;28;20462;-49
2021/04/16 05:06:51;;;;;;;8.77;5.80;;;6.30;66.40;;;;;;5048555;28;20537;-49
2021/04/16 05:09:17;;;;;;;7.03;5.40;;;6.20;66.40;;;;;;5050003;28;20505;-49
2021/04/16 05:11:43;;;;;;;9.90;5.90;;;6.20;66.30;;;;;;5049200;28;20667;-49
2021/04/16 05:14:09;;;;;;;6.87;5.27;;;6.20;66.10;;;;;;5048022;28;20458;-49
2021/04/16 05:16:36;;;;;;;6.40;5.43;;;6.30;65.80;;;;;;5049119;28;20504;-49
2021/04/16 05:19:02;;;;;;;6.77;5.93;;;6.30;65.90;;;;;;5047722;28;20809;-49
2021/04/16 05:21:29;;;;;;;5.93;5.33;;;6.30;66.00;;;;;;5048596;28;20467;-49
2021/04/16 05:23:56;;;;;;;5.63;4.80;;;6.30;65.70;;;;;;5061430;28;20473;-49
2021/04/16 05:26:23;;;;;;;6.77;5.50;;;6.30;65.70;;;;;;5046048;28;20451;-49
2021/04/16 05:28:49;;;;;;;7.53;5.70;;;6.40;65.90;;;;;;5044620;28;20896;-49
2021/04/16 05:31:16;;;;;;;6.90;6.30;;;6.40;65.80;;;;;;5044583;28;20462;-49
2021/04/16 05:33:42;;;;;;;8.63;6.03;;;6.40;65.70;;;;;;5049001;28;20459;-49
2021/04/16 05:36:08;;;;;;;7.30;5.87;;;6.40;65.50;;;;;;5063940;28;20455;-49
2021/04/16 05:38:35;;;;;;;5.13;4.73;;;6.40;65.50;;;;;;5040204;28;20464;-49
2021/04/16 05:41:01;;;;;;;10.63;5.90;;;6.50;65.20;;;;;;5040589;28;20536;-49
2021/04/16 05:43:28;;;;;;;5.47;4.80;;;6.50;65.00;;;;;;5046465;28;20466;-49
2021/04/16 05:45:56;;;;;;;6.93;5.57;;;6.50;64.90;;;;;;5045936;28;20466;-48
2021/04/16 05:48:22;;;;;;;9.23;5.50;;;6.60;64.80;;;;;;5044385;28;20455;-49
2021/04/16 05:50:49;;;;;;;5.73;4.87;;;6.60;64.50;;;;;;5047122;28;20867;-49
2021/04/16 05:53:15;;;;;;;7.63;5.33;;;6.70;64.30;;;;;;5047000;28;20487;-49
2021/04/16 05:55:41;;;;;;;5.17;4.17;;;6.70;64.10;;;;;;5048311;28;21112;-49
2021/04/16 05:58:08;;;;;;;6.27;4.50;;;6.70;63.50;;;;;;5047642;28;20629;-49
2021/04/16 06:00:34;;;;;;;5.43;4.93;;;6.80;62.80;;;;;;5048442;28;20439;-49
2021/04/16 06:03:01;;;;;;;5.67;4.00;;;6.80;62.00;;;;;;5046512;28;20524;-49
2021/04/16 06:05:27;;;;;;;5.53;3.90;;;6.90;62.10;;;;;;5042114;28;20455;-49
2021/04/16 06:07:55;;;;;;;4.33;3.73;;;6.90;61.50;;;;;;5043314;28;20461;-49
2021/04/16 06:10:24;;;;;;;4.90;3.53;;;6.90;61.20;;;;;;5041783;28;20508;-49
2021/04/16 06:12:51;;;;;;;11.57;4.10;;;6.90;61.50;;;;;;5041157;28;21662;-49
2021/04/16 06:15:25;;;;;;;3.90;3.60;;;7.00;61.10;;;;;;5045338;28;20478;-49
2021/04/16 06:17:52;;;;;;;5.20;4.70;;;7.00;60.50;;;;;;5040871;28;20472;-49
2021/04/16 06:20:21;;;;;;;4.43;4.03;;;7.00;60.40;;;;;;5043431;28;20979;-49
2021/04/16 06:22:48;;;;;;;5.83;2.90;;;7.00;60.50;;;;;;5046682;28;20849;-49
2021/04/16 06:25:17;;;;;;;4.17;3.70;;;7.00;60.60;;;;;;5050041;28;20450;-49
2021/04/16 06:27:44;;;;;;;4.30;3.37;;;7.00;60.30;;;;;;5058822;28;20546;-49
2021/04/16 06:30:15;;;;;;;5.13;4.60;;;7.00;60.20;;;;;;5047082;28;20524;-49
2021/04/16 06:32:41;;;;;;;3.90;3.60;;;7.10;60.40;;;;;;5046824;28;20482;-49
2021/04/16 06:35:11;;;;;;;5.27;3.70;;;7.10;60.60;;;;;;5045915;28;20549;-49
2021/04/16 06:37:37;;;;;;;5.00;3.60;;;7.20;60.40;;;;;;5046061;28;20455;-49
2021/04/16 06:40:05;;;;;;;4.50;3.43;;;7.20;60.30;;;;;;5046829;28;20564;-49
2021/04/16 06:42:33;;;;;;;4.00;3.60;;;7.20;60.30;;;;;;5049371;28;20451;-49
2021/04/16 06:45:05;;;;;;;4.07;3.30;;;7.30;60.30;;;;;;5045931;28;20469;-49
2021/04/16 06:47:43;;;;;;;2.80;2.37;;;7.30;59.80;;;;;;5043239;28;20463;-49
2021/04/16 06:50:15;;;;;;;4.33;3.47;;;7.30;59.50;;;;;;5045395;28;20454;-49
2021/04/16 06:53:01;;;;;;;3.57;3.27;;;7.30;60.10;;;;;;5048022;28;20485;-49
2021/04/16 06:55:35;;;;;;;4.00;3.47;;;7.40;60.20;;;;;;5045738;28;20458;-49
2021/04/16 06:58:18;;;;;;;4.20;3.67;;;7.40;60.30;;;;;;5048918;28;20493;-50
2021/04/16 07:01:10;;;;;;;4.97;3.37;;;7.40;60.30;;;;;;5047766;28;20471;-49
2021/04/16 07:03:40;;;;;;;3.47;2.97;;;7.40;59.50;;;;;;5043427;28;20460;-49
2021/04/16 07:06:18;;;;;;;5.30;3.40;;;7.40;59.20;;;;;;5041897;28;20576;-49
2021/04/16 07:08:52;;;;;;;3.60;3.20;;;7.40;59.70;;;;;;5044181;28;20464;-49
2021/04/16 07:11:31;;;;;;;4.23;3.33;;;7.40;59.60;;;;;;5048831;28;20553;-49
2021/04/16 07:14:01;;;;;;;6.77;2.93;;;7.40;59.30;;;;;;5045811;28;21027;-49
2021/04/16 07:16:30;;;;;;;2.17;1.90;;;7.50;59.50;;;;;;5045265;28;20759;-49
2021/04/16 07:19:05;;;;;;;3.90;2.20;;;7.50;58.80;;;;;;5045446;28;20877;-49
2021/04/16 07:21:32;;;;;;;2.27;2.07;;;7.50;58.30;;;;;;5043333;28;20454;-49
2021/04/16 07:24:03;;;;;;;2.40;2.20;;;7.60;58.40;;;;;;5046394;28;20466;-49
2021/04/16 07:26:52;;;;;;;2.43;1.97;;;7.70;58.70;;;;;;5046418;28;20450;-49
2021/04/16 07:29:39;;;;;;;2.13;1.93;;;7.70;58.90;;;;;;5047455;28;21013;-49
2021/04/16 07:32:11;;;;;;;1.60;1.50;;;7.80;59.30;;;;;;5051234;28;20485;-49
2021/04/16 07:34:47;;;;;;;2.93;2.17;;;7.90;58.70;;;;;;5047893;28;20485;-49
2021/04/16 07:37:18;;;;;;;1.70;1.60;;;8.00;57.70;;;;;;5045468;28;20948;-49
2021/04/16 07:39:59;;;;;;;2.57;1.83;;;8.20;57.90;;;;;;5050077;28;20450;-49
2021/04/16 07:42:47;;;;;;;1.80;1.70;;;8.20;58.10;;;;;;5048932;28;20470;-49
2021/04/16 07:45:25;;;;;;;3.80;1.97;;;8.30;57.80;;;;;;5049971;28;20509;-49
2021/04/16 07:48:20;;;;;;;2.70;1.53;;;8.40;57.60;;;;;;5051409;28;20481;-49
2021/04/16 07:50:49;;;;;;;2.43;2.23;;;8.50;57.30;;;;;;5047832;28;20494;-49
2021/04/16 07:53:43;;;;;;;2.23;2.03;;;8.50;56.40;;;;;;5047698;28;20585;-49
2021/04/16 07:56:18;;;;;;;2.40;2.20;;;8.60;55.60;;;;;;5047120;28;20455;-49
2021/04/16 07:59:04;;;;;;;2.63;1.50;;;8.60;55.10;;;;;;5062986;28;20560;-49
2021/04/16 08:01:38;;;;;;;2.70;1.90;;;8.70;56.00;;;;;;5046126;28;20473;-49
2021/04/16 08:04:10;;;;;;;2.67;1.93;;;8.70;56.20;;;;;;5049924;28;20462;-49
2021/04/16 08:06:43;;;;;;;2.43;1.60;;;8.70;54.60;;;;;;5047306;28;20895;-49
2021/04/16 08:09:25;;;;;;;1.50;1.33;;;8.70;55.30;;;;;;5050705;28;20529;-49
2021/04/16 08:12:00;;;;;;;1.30;1.20;;;8.80;55.30;;;;;;5046060;28;20493;-49
2021/04/16 08:14:31;;;;;;;1.87;1.47;;;8.90;55.50;;;;;;5049362;28;20446;-49
2021/04/16 08:17:01;;;;;;;4.40;1.67;;;8.90;54.30;;;;;;5043796;28;20535;-49
2021/04/16 08:19:38;;;;;;;1.60;1.50;;;9.00;54.00;;;;;;5049445;28;20443;-49
2021/04/16 08:22:16;;;;;;;2.60;1.60;;;9.10;54.40;;;;;;5046731;28;20986;-49
2021/04/16 08:24:54;;;;;;;1.60;1.50;;;9.10;54.30;;;;;;5048943;28;20880;-49
2021/04/16 08:27:36;;;;;;;1.90;1.13;;;9.20;54.50;;;;;;5046222;28;20455;-49
2021/04/16 08:30:23;;;;;;;2.73;1.70;;;9.30;54.20;;;;;;5049827;28;20546;-49
2021/04/16 08:33:08;;;;;;;2.40;1.40;;;9.40;52.80;;;;;;5036644;28;20527;-49
2021/04/16 08:35:59;;;;;;;2.50;2.20;;;9.50;52.70;;;;;;5049815;28;20459;-49
2021/04/16 08:38:30;;;;;;;1.63;1.10;;;9.70;52.40;;;;;;5051151;28;20554;-49
2021/04/16 08:41:01;;;;;;;4.73;1.93;;;9.80;51.40;;;;;;5049139;28;20775;-49
2021/04/16 08:44:03;;;;;;;7.80;1.97;;;10.00;51.60;;;;;;5051216;28;20885;-49
2021/04/16 08:46:32;;;;;;;2.43;1.60;;;10.20;51.40;;;;;;5048620;28;21030;-49
2021/04/16 08:49:17;;;;;;;2.63;1.57;;;10.40;50.10;;;;;;5066144;28;20442;-49
2021/04/16 08:52:32;;;;;;;2.53;1.50;;;10.60;50.20;;;;;;5051611;28;20483;-49
2021/04/16 08:55:10;;;;;;;2.23;1.40;;;11.00;49.60;;;;;;5041803;28;20890;-49
2021/04/16 08:57:45;;;;;;;2.30;1.70;;;11.40;48.00;;;;;;5050007;28;20446;-49
2021/04/16 09:00:18;;;;;;;1.97;1.60;;;11.50;48.40;;;;;;5046787;28;20464;-49
2021/04/16 09:02:44;;;;;;;3.90;1.70;;;11.50;47.80;;;;;;5062278;28;20460;-49
2021/04/16 09:05:27;;;;;;;2.33;1.63;;;11.40;47.30;;;;;;5045934;28;20451;-49
2021/04/16 09:08:23;;;;;;;6.03;2.30;;;11.30;47.70;;;;;;5048651;28;20465;-49
2021/04/16 09:10:57;;;;;;;2.93;1.50;;;11.30;48.40;;;;;;5045482;28;20505;-49
2021/04/16 09:13:32;;;;;;;3.13;1.97;;;11.30;48.20;;;;;;5049092;28;20486;-49
2021/04/16 09:16:18;;;;;;;2.30;1.50;;;11.40;47.80;;;;;;5047124;28;20486;-49
2021/04/16 09:18:51;;;;;;;2.10;1.90;;;11.40;48.00;;;;;;5050036;28;20496;-49
2021/04/16 09:21:25;;;;;;;2.23;1.50;;;11.40;47.70;;;;;;5048764;28;20803;-49
2021/04/16 09:24:14;;;;;;;1.73;1.60;;;11.40;47.90;;;;;;5047832;28;20735;-49
2021/04/16 09:26:50;;;;;;;2.60;1.60;;;11.50;47.50;;;;;;5047888;28;20848;-49
2021/04/16 09:29:37;;;;;;;2.17;1.30;;;11.60;47.60;;;;;;5063511;28;20450;-49
2021/04/16 09:32:26;;;;;;;2.93;2.33;;;12.10;47.70;;;;;;5060457;28;20594;-49
2021/04/16 09:34:54;;;;;;;4.10;2.00;;;12.40;47.10;;;;;;5061681;28;20975;-49
2021/04/16 09:37:25;;;;;;;2.33;1.60;;;12.70;46.20;;;;;;5046680;28;20454;-49
2021/04/16 09:40:14;;;;;;;4.00;1.80;;;12.90;45.70;;;;;;5042955;28;20486;-49
2021/04/16 09:42:43;;;;;;;4.83;1.90;;;13.40;45.30;;;;;;5046924;28;20472;-49
2021/04/16 09:45:33;;;;;;;3.50;1.53;;;14.10;44.00;;;;;;5047859;28;20462;-49
2021/04/16 09:48:04;;;;;;;1.87;1.53;;;14.40;42.90;;;;;;5044204;28;20837;-49
2021/04/16 09:50:41;;;;;;;2.50;2.07;;;14.90;41.90;;;;;;5041029;28;20489;-50
2021/04/16 09:53:33;;;;;;;2.70;1.80;;;15.00;41.20;;;;;;5047196;28;20585;-49
2021/04/16 09:56:01;;;;;;;3.47;1.70;;;14.80;40.80;;;;;;5046738;28;20557;-49
2021/04/16 09:58:34;;;;;;;2.73;1.80;;;14.70;42.20;;;;;;5047667;28;20456;-48
2021/04/16 10:01:06;;;;;;;2.90;2.10;;;14.60;42.10;;;;;;5048085;28;20527;-49
2021/04/16 10:03:36;;;;;;;3.23;1.83;;;14.50;42.70;;;;;;5047866;28;20442;-51
2021/04/16 10:06:19;;;;;;;3.17;1.90;;;14.60;42.60;;;;;;5064354;28;20821;-48
2021/04/16 10:08:45;;;;;;;2.03;1.83;;;14.50;41.90;;;;;;5062206;28;20443;-48
2021/04/16 10:11:13;;;;;;;2.40;1.40;;;14.40;41.80;;;;;;5049890;28;20501;-49
2021/04/16 10:13:40;;;;;;;2.67;1.90;;;14.20;41.70;;;;;;5047133;28;20518;-49
2021/04/16 10:16:21;;;;;;;2.40;2.20;;;14.00;41.60;;;;;;5043149;28;20572;-48
2021/04/16 10:18:48;;;;;;;1.97;1.30;;;13.70;41.70;;;;;;5045718;28;20455;-49
2021/04/16 10:21:15;;;;;;;3.03;1.63;;;13.40;42.50;;;;;;5046411;28;20458;-48
2021/04/16 10:23:51;;;;;;;2.00;1.67;;;13.30;42.70;;;;;;5045782;28;20459;-48
2021/04/16 12:38:42;;;;;;;14.20;5.97;;;12.20;45.50;;;;;;5045303;28;20463;-49
2021/04/16 12:41:15;;;;;;;10.17;5.00;;;12.20;45.00;;;;;;5048850;28;20958;-49
2021/04/16 12:43:44;;;;;;;8.77;5.20;;;12.20;45.40;;;;;;5045699;28;20463;-49
2021/04/16 12:46:15;;;;;;;3.40;2.53;;;12.20;45.10;;;;;;5048269;28;20462;-49
2021/04/16 12:48:43;;;;;;;9.57;2.47;;;12.30;46.00;;;;;;5046293;28;20466;-49
2021/04/16 12:51:11;;;;;;;1.80;1.50;;;12.40;45.80;;;;;;5062674;28;20494;-49
2021/04/16 12:53:38;;;;;;;6.43;3.60;;;12.40;46.10;;;;;;5063355;28;20514;-49
2021/04/16 12:56:07;;;;;;;4.97;2.77;;;12.50;45.80;;;;;;5050316;28;20482;-49
2021/04/16 12:58:39;;;;;;;6.13;3.30;;;12.50;45.90;;;;;;5050215;28;20819;-49
2021/04/16 13:01:22;;;;;;;9.20;5.00;;;12.60;45.60;;;;;;5046726;28;20785;-49
2021/04/16 13:03:50;;;;;;;6.43;2.83;;;12.70;45.40;;;;;;5048250;28;20466;-49
2021/04/16 13:06:26;;;;;;;6.57;3.13;;;12.70;45.40;;;;;;5048533;28;21050;-49
2021/04/16 13:08:53;;;;;;;8.00;4.17;;;12.60;45.70;;;;;;5049360;28;20450;-49
2021/04/16 13:11:20;;;;;;;7.90;3.40;;;12.70;45.70;;;;;;5050547;28;20454;-49
2021/04/16 13:13:47;;;;;;;7.07;3.57;;;12.70;45.50;;;;;;5045773;28;20486;-49
2021/04/16 13:16:14;;;;;;;4.20;2.67;;;12.70;45.90;;;;;;5049034;28;20557;-49
2021/04/16 13:18:43;;;;;;;3.03;1.97;;;12.70;46.80;;;;;;5046232;28;20461;-49
2021/04/16 13:21:25;;;;;;;2.87;2.17;;;12.70;46.10;;;;;;5044036;28;20457;-49
2021/04/16 13:23:52;;;;;;;4.30;2.13;;;12.70;45.70;;;;;;5047881;28;20497;-49
2021/04/16 13:26:18;;;;;;;4.03;1.90;;;12.70;46.40;;;;;;5064102;28;20843;-49
2021/04/16 13:28:45;;;;;;;2.93;2.43;;;12.70;47.20;;;;;;5049645;28;20465;-49
2021/04/16 13:31:14;;;;;;;3.33;2.40;;;12.80;46.40;;;;;;5047936;28;20492;-48
2021/04/16 13:33:43;;;;;;;2.53;2.33;;;12.80;46.40;;;;;;5048946;28;20481;-50
2021/04/16 13:36:23;;;;;;;2.90;2.07;;;12.70;46.40;;;;;;5047687;28;20482;-50
2021/04/16 13:38:49;;;;;;;2.90;2.23;;;12.70;46.90;;;;;;5048980;28;20464;-50
2021/04/16 13:41:17;;;;;;;4.47;2.97;;;12.60;47.60;;;;;;5047414;28;20541;-50
2021/04/16 13:43:43;;;;;;;3.37;2.67;;;12.60;47.60;;;;;;5046588;28;20524;-50
2021/04/16 13:46:19;;;;;;;4.27;2.77;;;12.50;47.50;;;;;;5047101;28;20477;-50
2021/04/16 13:48:47;;;;;;;2.33;2.13;;;12.50;48.00;;;;;;5046884;28;20481;-50
2021/04/16 13:51:15;;;;;;;2.23;1.73;;;12.60;48.50;;;;;;5060763;28;20467;-50
2021/04/16 13:53:42;;;;;;;3.03;2.60;;;12.60;48.20;;;;;;5045661;28;20487;-50
2021/04/16 13:56:08;;;;;;;2.23;2.03;;;12.60;48.40;;;;;;5047339;28;20470;-50
2021/04/16 13:58:35;;;;;;;5.50;2.07;;;12.70;48.00;;;;;;5047035;28;20940;-50
2021/04/16 14:01:03;;;;;;;2.40;1.87;;;12.90;47.60;;;;;;5046269;28;20795;-49
2021/04/16 14:03:42;;;;;;;4.20;2.10;;;13.00;47.80;;;;;;5045732;28;20454;-49
2021/04/16 14:06:15;;;;;;;4.60;2.10;;;13.00;47.50;;;;;;5047008;28;20505;-49
2021/04/16 14:08:55;;;;;;;4.10;3.10;;;13.10;47.50;;;;;;5045772;28;20554;-51
2021/04/16 14:11:22;;;;;;;4.37;2.40;;;13.10;46.50;;;;;;5048496;28;20486;-50
2021/04/16 14:13:49;;;;;;;14.07;8.80;;;13.10;46.80;;;;;;5049921;28;20486;-49
2021/04/16 14:16:35;;;;;;;9.73;6.73;;;13.00;46.60;;;;;;5046200;28;20490;-49
2021/04/16 14:19:08;;;;;;;8.23;5.10;;;12.90;47.10;;;;;;5049729;28;21295;-51
2021/04/16 14:21:38;;;;;;;4.27;2.70;;;12.70;47.20;;;;;;5047793;28;20482;-51
2021/04/16 14:24:07;;;;;;;3.43;2.00;;;12.60;47.90;;;;;;5048800;28;20463;-49
2021/04/16 14:26:33;;;;;;;2.50;2.30;;;12.50;48.50;;;;;;5046991;28;20930;-51
2021/04/16 14:29:00;;;;;;;3.43;2.47;;;12.40;48.70;;;;;;5047322;28;20458;-50
2021/04/16 14:31:27;;;;;;;5.93;2.73;;;12.30;49.00;;;;;;5048415;28;20577;-49
2021/04/16 14:33:53;;;;;;;3.23;2.63;;;12.30;49.00;;;;;;5049350;28;20490;-50
2021/04/16 14:36:33;;;;;;;4.67;2.70;;;12.20;48.80;;;;;;5047095;28;20523;-49
2021/04/16 14:39:00;;;;;;;4.60;2.80;;;12.10;48.90;;;;;;5045884;28;20452;-49
2021/04/16 14:41:29;;;;;;;4.10;2.67;;;12.00;48.90;;;;;;5049489;28;20886;-49
2021/04/16 14:43:55;;;;;;;5.27;2.20;;;11.80;49.10;;;;;;5048506;28;20471;-49
2021/04/16 14:46:22;;;;;;;6.43;2.30;;;11.70;49.70;;;;;;5047235;28;20458;-49
2021/04/16 14:48:49;;;;;;;5.00;2.50;;;11.70;50.20;;;;;;5062676;28;20505;-49
2021/04/16 14:51:15;;;;;;;2.00;1.90;;;11.60;50.40;;;;;;5047598;28;20952;-49
2021/04/16 14:53:49;;;;;;;2.97;1.97;;;11.50;50.70;;;;;;5048838;28;20485;-49
2021/04/16 14:56:17;;;;;;;2.13;1.40;;;11.40;49.90;;;;;;5048618;28;20935;-49
2021/04/16 14:58:48;;;;;;;1.93;1.60;;;11.40;50.00;;;;;;5048235;28;20477;-49
2021/04/16 15:01:16;;;;;;;2.67;1.70;;;11.30;50.00;;;;;;5044550;28;20457;-49
2021/04/16 15:03:43;;;;;;;2.70;1.30;;;11.30;49.40;;;;;;5048183;28;20489;-49
2021/04/16 15:06:21;;;;;;;3.77;1.30;;;11.30;49.80;;;;;;5044046;28;20459;-49
2021/04/16 15:08:53;;;;;;;1.57;1.47;;;11.30;50.10;;;;;;5042250;28;20458;-49
2021/04/16 15:11:20;;;;;;;2.27;2.00;;;11.40;50.20;;;;;;5047741;28;20462;-50
2021/04/16 15:13:47;;;;;;;3.90;1.80;;;11.50;48.80;;;;;;5044705;28;20788;-49
2021/04/16 15:16:17;;;;;;;1.93;1.20;;;11.60;48.40;;;;;;5043976;28;20485;-50
2021/04/16 15:18:45;;;;;;;2.77;1.70;;;11.60;48.30;;;;;;5048379;28;20474;-49
2021/04/16 15:21:19;;;;;;;7.87;2.07;;;11.70;48.30;;;;;;5045812;28;20481;-50
2021/04/16 15:23:48;;;;;;;3.47;1.43;;;11.70;48.60;;;;;;5044520;28;21031;-49